createdAt,value
2023-02-15T00:01:28.796Z,3.80
2023-02-15T00:03:57.793Z,3.80
2023-02-15T00:06:26.714Z,3.90
2023-02-15T00:08:56.859Z,3.90
2023-02-15T00:11:43.740Z,3.90
2023-02-15T00:14:16.420Z,3.80
2023-02-15T00:16:46.832Z,3.90
2023-02-15T00:19:18.025Z,3.80
2023-02-15T00:21:49.014Z,3.80
2023-02-15T00:24:20.454Z,3.80
2023-02-15T00:26:51.398Z,3.80
2023-02-15T00:29:22.116Z,3.80
2023-02-15T00:31:51.036Z,3.80
2023-02-15T00:34:23.145Z,3.80
2023-02-15T00:36:52.673Z,3.80
2023-02-15T00:39:21.897Z,3.80
2023-02-15T00:41:52.563Z,3.80
2023-02-15T00:44:21.456Z,3.80
2023-02-15T00:46:50.230Z,3.80
2023-02-15T00:49:19.049Z,3.80
2023-02-15T00:51:47.723Z,3.80
2023-02-15T00:54:16.492Z,3.70
2023-02-15T00:56:45.367Z,3.70
2023-02-15T00:59:15.705Z,3.70
2023-02-15T01:01:44.494Z,3.60
2023-02-15T01:04:13.260Z,3.50
2023-02-15T01:06:42.071Z,3.40
2023-02-15T01:09:10.860Z,3.40
2023-02-15T01:11:39.637Z,3.40
2023-02-15T01:14:08.383Z,3.40
2023-02-15T01:16:38.641Z,3.40
2023-02-15T01:19:07.711Z,3.40
2023-02-15T01:21:36.737Z,3.40
2023-02-15T01:24:05.861Z,3.40
2023-02-15T01:26:34.601Z,3.30
2023-02-15T01:29:03.420Z,3.30
2023-02-15T01:31:32.329Z,3.30
2023-02-15T01:34:02.567Z,3.30
2023-02-15T01:36:31.632Z,3.30
2023-02-15T01:39:00.395Z,3.40
2023-02-15T01:41:29.220Z,3.40
2023-02-15T01:44:00.676Z,3.30
2023-02-15T01:46:37.512Z,3.40
2023-02-15T01:49:15.206Z,3.40
2023-02-15T01:51:48.113Z,3.30
2023-02-15T01:54:26.260Z,3.30
2023-02-15T01:56:58.864Z,3.30
2023-02-15T01:59:28.617Z,3.40
2023-02-15T02:02:01.798Z,3.40
2023-02-15T02:04:41.132Z,3.30
2023-02-15T02:07:12.231Z,3.30
2023-02-15T02:09:41.010Z,3.30
2023-02-15T02:12:11.121Z,3.30
2023-02-15T02:14:41.629Z,3.30
2023-02-15T02:17:18.865Z,3.30
2023-02-15T02:20:18.068Z,3.30
2023-02-15T02:23:21.322Z,3.30
2023-02-15T02:26:41.105Z,3.30
2023-02-15T02:30:07.233Z,3.30
2023-02-15T02:33:14.759Z,3.30
2023-02-15T02:35:55.951Z,3.20
2023-02-15T02:38:34.806Z,3.20
2023-02-15T02:41:15.394Z,3.10
2023-02-15T02:43:56.606Z,3.10
2023-02-15T02:46:35.821Z,3.00
2023-02-15T02:49:06.112Z,2.90
2023-02-15T02:51:35.039Z,2.90
2023-02-15T02:54:09.037Z,2.90
2023-02-15T02:56:44.602Z,2.80
2023-02-15T02:59:19.735Z,2.80
2023-02-15T03:01:54.554Z,2.70
2023-02-15T03:04:31.133Z,2.70
2023-02-15T03:07:04.968Z,2.70
2023-02-15T03:09:42.616Z,2.60
2023-02-15T03:12:15.653Z,2.60
2023-02-15T03:14:50.654Z,2.60
2023-02-15T03:17:23.658Z,2.50
2023-02-15T03:20:00.074Z,2.30
2023-02-15T03:22:34.475Z,2.30
2023-02-15T03:25:10.903Z,2.20
2023-02-15T03:27:45.923Z,2.10
2023-02-15T03:30:19.546Z,2.10
2023-02-15T03:32:50.840Z,2.10
2023-02-15T03:35:25.934Z,2.10
2023-02-15T03:38:01.181Z,2.10
2023-02-15T03:40:56.616Z,2.10
2023-02-15T03:43:35.549Z,2.20
2023-02-15T03:46:13.713Z,2.10
2023-02-15T03:48:50.501Z,2.10
2023-02-15T03:51:39.212Z,2.10
2023-02-15T03:54:12.639Z,2.20
2023-02-15T03:57:05.211Z,2.20
2023-02-15T03:59:51.540Z,2.20
2023-02-15T04:02:26.551Z,2.20
2023-02-15T04:04:55.299Z,2.10
2023-02-15T04:07:25.560Z,2.10
2023-02-15T04:10:26.440Z,2.10
2023-02-15T04:12:55.250Z,2.10
2023-02-15T04:15:41.383Z,2.00
2023-02-15T04:18:10.210Z,1.90
2023-02-15T04:20:56.773Z,1.80
2023-02-15T04:23:44.122Z,1.80
2023-02-15T04:26:12.941Z,1.80
2023-02-15T04:28:41.706Z,1.80
2023-02-15T04:31:10.695Z,1.80
2023-02-15T04:33:39.566Z,1.80
2023-02-15T04:36:08.533Z,1.80
2023-02-15T04:38:38.783Z,1.80
2023-02-15T04:41:07.574Z,1.80
2023-02-15T04:43:36.475Z,1.80
2023-02-15T04:46:05.559Z,1.80
2023-02-15T04:48:34.502Z,1.80
2023-02-15T04:51:08.648Z,1.80
2023-02-15T04:53:39.018Z,1.80
2023-02-15T04:56:07.911Z,1.70
2023-02-15T04:58:38.085Z,1.70
2023-02-15T05:01:07.034Z,1.70
2023-02-15T05:03:35.952Z,1.70
2023-02-15T05:06:05.580Z,1.70
2023-02-15T05:08:34.695Z,1.60
2023-02-15T05:11:06.055Z,1.50
2023-02-15T05:13:35.172Z,1.50
2023-02-15T05:16:04.416Z,1.50
2023-02-15T05:18:33.263Z,1.50
2023-02-15T05:21:02.095Z,1.40
2023-02-15T05:23:30.857Z,1.40
2023-02-15T05:26:17.338Z,1.40
2023-02-15T05:28:47.485Z,1.30
2023-02-15T05:31:20.002Z,1.40
2023-02-15T05:33:49.323Z,1.30
2023-02-15T05:36:18.120Z,1.30
2023-02-15T05:38:46.932Z,1.30
2023-02-15T05:41:15.689Z,1.30
2023-02-15T05:43:44.594Z,1.20
2023-02-15T05:46:15.330Z,1.20
2023-02-15T05:48:44.219Z,1.20
2023-02-15T05:51:16.906Z,1.30
2023-02-15T05:53:45.682Z,1.30
2023-02-15T05:56:14.573Z,1.20
2023-02-15T05:58:44.214Z,1.20
2023-02-15T06:01:18.207Z,1.10
2023-02-15T06:03:47.693Z,1.10
2023-02-15T06:06:16.679Z,1.10
2023-02-15T06:08:45.584Z,1.20
2023-02-15T06:11:14.456Z,1.30
2023-02-15T06:13:43.428Z,1.40
2023-02-15T06:16:13.646Z,1.50
2023-02-15T06:18:42.472Z,1.60
2023-02-15T06:21:11.275Z,1.70
2023-02-15T06:23:40.225Z,1.90
2023-02-15T06:26:09.121Z,2.10
2023-02-15T06:28:38.346Z,2.30
2023-02-15T06:31:07.278Z,2.50
2023-02-15T06:33:38.147Z,2.60
2023-02-15T06:36:07.499Z,2.80
2023-02-15T06:38:36.368Z,3.00
2023-02-15T06:41:05.098Z,3.20
2023-02-15T06:43:34.924Z,3.40
2023-02-15T06:46:04.233Z,3.60
2023-02-15T06:48:33.521Z,4.00
2023-02-15T06:51:03.709Z,4.30
2023-02-15T06:53:32.630Z,4.70
2023-02-15T06:56:07.649Z,4.90
2023-02-15T06:58:36.541Z,5.10
2023-02-15T07:01:06.196Z,5.30
2023-02-15T07:03:36.123Z,5.60
2023-02-15T07:06:09.522Z,5.90
2023-02-15T07:08:39.496Z,6.10
2023-02-15T07:11:27.028Z,6.50
2023-02-15T07:13:55.813Z,6.90
2023-02-15T07:16:24.633Z,7.20
2023-02-15T07:18:53.415Z,7.50
2023-02-15T07:21:23.613Z,7.90
2023-02-15T07:23:52.383Z,8.10
2023-02-15T07:26:21.298Z,8.30
2023-02-15T07:28:50.157Z,8.70
2023-02-15T07:31:19.167Z,9.00
2023-02-15T07:33:47.923Z,9.00
2023-02-15T07:36:16.949Z,9.00
2023-02-15T07:38:47.943Z,8.80
2023-02-15T07:41:18.081Z,9.00
2023-02-15T07:43:48.006Z,9.00
2023-02-15T07:46:19.194Z,9.20
2023-02-15T07:48:48.676Z,9.10
2023-02-15T07:51:18.131Z,9.00
2023-02-15T07:53:48.510Z,8.90
2023-02-15T07:56:18.257Z,8.60
2023-02-15T07:58:53.138Z,8.40
2023-02-15T08:01:24.824Z,8.00
2023-02-15T08:03:54.417Z,7.80
2023-02-15T08:06:25.217Z,8.30
2023-02-15T08:08:55.751Z,8.70
2023-02-15T08:11:33.842Z,9.00
2023-02-15T08:14:05.834Z,8.60
2023-02-15T08:16:38.196Z,8.20
2023-02-15T08:19:10.244Z,7.80
2023-02-15T08:21:41.647Z,7.40
2023-02-15T08:24:14.438Z,7.10
2023-02-15T08:26:46.176Z,7.00
2023-02-15T08:29:16.904Z,7.00
2023-02-15T08:31:46.908Z,6.90
2023-02-15T08:34:19.458Z,6.70
2023-02-15T08:36:49.527Z,6.60
2023-02-15T08:39:19.900Z,6.50
2023-02-15T08:41:50.473Z,6.30
2023-02-15T08:44:21.714Z,6.10
2023-02-15T08:46:51.807Z,5.90
2023-02-15T08:49:22.715Z,5.90
2023-02-15T08:51:52.597Z,5.70
2023-02-15T08:54:24.088Z,5.50
2023-02-15T08:56:53.050Z,5.30
2023-02-15T08:59:25.307Z,5.50
2023-02-15T09:01:55.134Z,5.70
2023-02-15T09:04:24.427Z,5.70
2023-02-15T09:06:53.622Z,5.70
2023-02-15T09:09:24.346Z,5.70
2023-02-15T09:11:58.736Z,5.70
2023-02-15T09:14:29.909Z,5.70
2023-02-15T09:16:59.064Z,5.80
2023-02-15T09:19:28.158Z,5.80
2023-02-15T09:21:56.983Z,5.80
2023-02-15T09:24:27.181Z,5.80
2023-02-15T09:26:56.145Z,5.80
2023-02-15T09:29:25.413Z,5.80
2023-02-15T09:31:54.784Z,5.70
2023-02-15T09:34:25.497Z,5.60
2023-02-15T09:36:54.622Z,5.50
2023-02-15T09:39:27.780Z,5.50
2023-02-15T09:42:22.301Z,5.40
2023-02-15T09:45:22.725Z,5.60
2023-02-15T09:48:32.367Z,5.50
2023-02-15T09:51:40.774Z,5.50
2023-02-15T09:54:46.914Z,5.30
2023-02-15T09:57:25.260Z,5.20
2023-02-15T10:00:10.470Z,5.20
2023-02-15T10:03:05.901Z,5.30
2023-02-15T10:05:52.811Z,5.40
2023-02-15T10:08:45.777Z,5.50
2023-02-15T10:11:42.287Z,5.50
2023-02-15T10:14:38.926Z,5.50
2023-02-15T10:17:25.714Z,5.50
2023-02-15T10:20:13.618Z,5.50
2023-02-15T10:23:08.953Z,5.40
2023-02-15T10:25:48.700Z,5.60
2023-02-15T10:28:25.460Z,5.80
2023-02-15T10:31:01.653Z,5.90
2023-02-15T10:33:43.320Z,6.00
2023-02-15T10:36:40.299Z,6.10
2023-02-15T10:39:21.054Z,6.00
2023-02-15T10:42:03.591Z,6.00
2023-02-15T10:44:56.791Z,6.00
2023-02-15T10:48:13.013Z,5.90
2023-02-15T10:50:52.961Z,5.90
2023-02-15T10:54:03.929Z,5.70
2023-02-15T10:56:45.995Z,5.70
2023-02-15T11:00:00.664Z,5.70
2023-02-15T11:02:52.614Z,5.70
2023-02-15T11:05:43.734Z,5.70
2023-02-15T11:08:14.228Z,5.70
2023-02-15T11:10:51.894Z,5.70
2023-02-15T11:13:24.848Z,5.70
2023-02-15T11:16:00.839Z,5.60
2023-02-15T11:18:36.713Z,5.70
2023-02-15T11:21:16.515Z,5.60
2023-02-15T11:23:47.231Z,5.60
2023-02-15T11:26:24.046Z,5.70
2023-02-15T11:28:59.761Z,5.70
2023-02-15T11:31:45.026Z,5.70
2023-02-15T11:34:22.964Z,5.60
2023-02-15T11:36:56.455Z,5.70
2023-02-15T11:39:29.708Z,5.50
2023-02-15T11:42:04.514Z,5.40
2023-02-15T11:44:39.301Z,5.40
2023-02-15T11:47:14.251Z,5.30
2023-02-15T11:49:43.159Z,5.30
2023-02-15T11:52:17.183Z,5.40
2023-02-15T11:54:51.884Z,5.40
2023-02-15T11:57:29.380Z,5.40
2023-02-15T12:00:05.228Z,5.30
2023-02-15T12:02:39.652Z,5.30
2023-02-15T12:05:17.994Z,5.20
2023-02-15T12:07:52.627Z,5.00
2023-02-15T12:10:27.473Z,5.00
2023-02-15T12:13:14.640Z,5.10
2023-02-15T12:15:47.571Z,5.10
2023-02-15T12:18:40.931Z,5.20
2023-02-15T12:21:14.604Z,5.30
2023-02-15T12:23:50.364Z,5.30
2023-02-15T12:26:27.913Z,5.40
2023-02-15T12:29:02.526Z,5.40
2023-02-15T12:31:40.781Z,5.40
2023-02-15T12:34:22.580Z,5.30
2023-02-15T12:36:58.877Z,5.20
2023-02-15T12:39:29.594Z,5.30
2023-02-15T12:42:07.714Z,5.40
2023-02-15T12:44:38.506Z,5.50
2023-02-15T12:47:19.648Z,5.50
2023-02-15T12:50:27.333Z,5.50
2023-02-15T12:53:15.381Z,5.50
2023-02-15T12:55:55.193Z,5.60
2023-02-15T12:58:26.429Z,5.60
2023-02-15T13:01:14.153Z,5.60
2023-02-15T13:04:00.358Z,5.50
2023-02-15T13:06:35.987Z,5.50
2023-02-15T13:09:17.964Z,5.40
2023-02-15T13:11:48.936Z,5.40
2023-02-15T13:14:22.916Z,5.50
2023-02-15T13:16:55.601Z,5.50
2023-02-15T13:19:35.894Z,5.20
2023-02-15T13:22:16.566Z,5.30
2023-02-15T13:24:51.097Z,5.40
2023-02-15T13:27:24.876Z,5.40
2023-02-15T13:29:59.541Z,5.50
2023-02-15T13:32:33.476Z,5.60
2023-02-15T13:35:06.574Z,5.60
2023-02-15T13:38:13.419Z,5.50
2023-02-15T13:40:52.972Z,5.40
2023-02-15T13:43:48.033Z,5.40
2023-02-15T13:46:33.458Z,5.30
2023-02-15T13:49:21.008Z,5.20
2023-02-15T13:52:03.790Z,5.30
2023-02-15T13:54:55.950Z,5.30
2023-02-15T13:57:59.487Z,5.20
2023-02-15T14:00:41.545Z,5.20
2023-02-15T14:04:09.786Z,5.20
2023-02-15T14:07:26.629Z,5.30
2023-02-15T14:10:21.172Z,5.30
2023-02-15T14:13:19.187Z,5.30
2023-02-15T14:15:57.129Z,5.30
2023-02-15T14:18:36.928Z,5.30
2023-02-15T14:21:17.618Z,5.20
2023-02-15T14:24:05.316Z,5.20
2023-02-15T14:26:48.445Z,5.20
2023-02-15T14:29:31.395Z,5.10
2023-02-15T14:32:10.388Z,5.00
2023-02-15T14:34:51.073Z,5.00
2023-02-15T14:37:31.985Z,5.20
2023-02-15T14:40:25.928Z,5.20
2023-02-15T14:43:04.032Z,5.20
2023-02-15T14:45:44.094Z,5.30
2023-02-15T14:48:23.253Z,5.30
2023-02-15T14:50:52.313Z,5.30
2023-02-15T14:53:43.219Z,5.10
2023-02-15T14:56:25.473Z,5.20
2023-02-15T14:59:21.768Z,5.30
2023-02-15T15:02:05.512Z,5.30
2023-02-15T15:04:39.416Z,5.40
2023-02-15T15:07:21.740Z,5.20
2023-02-15T15:10:04.105Z,5.10
2023-02-15T15:12:42.259Z,5.10
2023-02-15T15:15:34.481Z,5.20
2023-02-15T15:18:05.891Z,5.20
2023-02-15T15:20:51.630Z,5.10
2023-02-15T15:23:46.520Z,5.20
2023-02-15T15:26:34.382Z,5.20
2023-02-15T15:29:05.387Z,5.20
2023-02-15T15:31:58.011Z,5.30
2023-02-15T15:35:07.728Z,5.30
2023-02-15T15:38:26.114Z,5.20
2023-02-15T15:41:21.011Z,5.30
2023-02-15T15:44:56.139Z,5.10
2023-02-15T15:48:06.289Z,4.90
2023-02-15T15:50:36.883Z,4.80
2023-02-15T15:53:07.402Z,4.70
2023-02-15T15:55:37.033Z,4.80
2023-02-15T15:58:09.491Z,4.80
2023-02-15T16:00:45.543Z,4.80
2023-02-15T16:03:23.371Z,4.90
2023-02-15T16:05:56.231Z,4.90
2023-02-15T16:08:32.199Z,4.80
2023-02-15T16:11:02.259Z,4.80
2023-02-15T16:13:31.166Z,4.80
2023-02-15T16:16:00.050Z,4.80
2023-02-15T16:18:30.587Z,4.80
2023-02-15T16:21:03.477Z,4.70
2023-02-15T16:24:16.999Z,4.70
2023-02-15T16:27:33.024Z,4.70
2023-02-15T16:30:20.335Z,4.60
2023-02-15T16:32:49.817Z,4.60
2023-02-15T16:35:25.694Z,4.60
2023-02-15T16:37:54.569Z,4.50
2023-02-15T16:40:53.449Z,4.50
2023-02-15T16:43:28.700Z,4.40
2023-02-15T16:46:06.906Z,4.40
2023-02-15T16:48:41.707Z,4.40
2023-02-15T16:51:14.910Z,4.30
2023-02-15T16:53:49.121Z,4.30
2023-02-15T16:56:19.107Z,4.20
2023-02-15T16:58:53.469Z,4.10
2023-02-15T17:01:28.633Z,4.10
2023-02-15T17:04:26.051Z,4.10
2023-02-15T17:07:06.731Z,4.00
2023-02-15T17:09:36.401Z,4.00
2023-02-15T17:12:05.760Z,3.90
2023-02-15T17:14:41.274Z,3.90
2023-02-15T17:17:16.146Z,3.90
2023-02-15T17:19:52.731Z,3.80
2023-02-15T17:22:27.952Z,3.70
2023-02-15T17:25:04.637Z,3.70
2023-02-15T17:27:36.062Z,3.60
2023-02-15T17:30:18.159Z,3.60
2023-02-15T17:32:57.959Z,3.60
2023-02-15T17:35:30.465Z,3.50
2023-02-15T17:38:19.566Z,3.40
2023-02-15T17:40:48.674Z,3.50
2023-02-15T17:43:17.471Z,3.50
2023-02-15T17:45:51.274Z,3.40
2023-02-15T17:48:25.073Z,3.40
2023-02-15T17:50:54.152Z,3.40
2023-02-15T17:53:25.840Z,3.40
2023-02-15T17:55:53.582Z,3.30
2023-02-15T17:58:23.608Z,3.30
2023-02-15T18:01:14.305Z,3.20
2023-02-15T18:04:05.955Z,3.20
2023-02-15T18:06:54.289Z,3.20
2023-02-15T18:09:42.501Z,3.20
2023-02-15T18:12:22.932Z,3.10
2023-02-15T18:14:54.375Z,3.10
2023-02-15T18:17:31.053Z,3.10
2023-02-15T18:20:01.523Z,3.00
2023-02-15T18:22:31.293Z,3.10
2023-02-15T18:25:01.584Z,3.10
2023-02-15T18:27:30.594Z,3.10
2023-02-15T18:29:59.513Z,3.00
2023-02-15T18:32:36.148Z,3.00
2023-02-15T18:35:06.425Z,2.90
2023-02-15T18:37:35.820Z,2.90
2023-02-15T18:40:07.385Z,2.90
2023-02-15T18:42:37.054Z,2.90
2023-02-15T18:45:17.877Z,2.90
2023-02-15T18:47:47.521Z,2.90
2023-02-15T18:50:18.433Z,2.80
2023-02-15T18:52:51.050Z,2.90
2023-02-15T18:55:24.186Z,2.90
2023-02-15T18:57:55.610Z,2.90
2023-02-15T19:00:28.383Z,2.80
2023-02-15T19:03:00.659Z,2.70
2023-02-15T19:05:32.027Z,2.70
2023-02-15T19:08:03.784Z,2.70
2023-02-15T19:10:35.468Z,2.80
2023-02-15T19:13:04.776Z,2.80
2023-02-15T19:15:33.552Z,2.70
2023-02-15T19:18:02.382Z,2.70
2023-02-15T19:20:34.576Z,2.70
2023-02-15T19:23:05.021Z,2.60
2023-02-15T19:25:39.126Z,2.60
2023-02-15T19:28:17.736Z,2.50
2023-02-15T19:30:46.751Z,2.50
2023-02-15T19:33:23.729Z,2.50
2023-02-15T19:35:57.636Z,2.40
2023-02-15T19:38:32.110Z,2.50
2023-02-15T19:41:07.508Z,2.40
2023-02-15T19:43:37.364Z,2.50
2023-02-15T19:46:06.764Z,2.40
2023-02-15T19:48:35.700Z,2.40
2023-02-15T19:51:06.059Z,2.40
2023-02-15T19:53:35.359Z,2.40
2023-02-15T19:56:06.312Z,2.30
2023-02-15T19:58:35.265Z,2.30
2023-02-15T20:01:04.384Z,2.20
2023-02-15T20:03:33.506Z,2.20
2023-02-15T20:06:02.970Z,2.20
2023-02-15T20:08:33.311Z,2.20
2023-02-15T20:11:02.306Z,2.30
2023-02-15T20:13:32.858Z,2.30
2023-02-15T20:16:05.221Z,2.30
2023-02-15T20:18:34.072Z,2.30
2023-02-15T20:21:04.802Z,2.30
2023-02-15T20:23:37.682Z,2.30
2023-02-15T20:26:18.571Z,2.30
2023-02-15T20:28:49.132Z,2.30
2023-02-15T20:31:20.640Z,2.30
2023-02-15T20:33:49.677Z,2.30
2023-02-15T20:36:21.779Z,2.30
2023-02-15T20:38:51.036Z,2.30
2023-02-15T20:41:39.930Z,2.30
2023-02-15T20:44:26.930Z,2.30
2023-02-15T20:46:58.500Z,2.20
2023-02-15T20:49:29.916Z,2.20
2023-02-15T20:52:01.807Z,2.20
2023-02-15T20:54:37.307Z,2.20
2023-02-15T20:57:07.134Z,2.20
2023-02-15T20:59:42.849Z,2.20
2023-02-15T21:02:20.406Z,2.20
2023-02-15T21:04:49.359Z,2.20
2023-02-15T21:07:23.324Z,2.20
2023-02-15T21:09:54.479Z,2.10
2023-02-15T21:12:24.278Z,2.10
2023-02-15T21:14:54.511Z,2.00
2023-02-15T21:17:23.430Z,1.90
2023-02-15T21:19:52.581Z,1.90
2023-02-15T21:22:23.298Z,1.70
2023-02-15T21:24:55.195Z,1.60
2023-02-15T21:27:24.634Z,1.60
2023-02-15T21:29:55.322Z,1.60
2023-02-15T21:32:24.513Z,1.60
2023-02-15T21:34:53.785Z,1.50
2023-02-15T21:37:34.722Z,1.50
2023-02-15T21:40:07.102Z,1.30
2023-02-15T21:42:53.301Z,1.30
2023-02-15T21:45:40.979Z,1.40
2023-02-15T21:48:10.392Z,1.50
2023-02-15T21:50:57.209Z,1.50
2023-02-15T21:53:29.580Z,1.50
2023-02-15T21:56:01.941Z,1.50
2023-02-15T21:58:34.780Z,1.50
2023-02-15T22:01:06.394Z,1.50
2023-02-15T22:03:38.272Z,1.40
2023-02-15T22:06:08.183Z,1.40
2023-02-15T22:08:37.290Z,1.40
2023-02-15T22:11:14.501Z,1.40
2023-02-15T22:13:45.103Z,1.40
2023-02-15T22:16:20.517Z,1.40
2023-02-15T22:18:50.224Z,1.40
2023-02-15T22:21:19.578Z,1.30
2023-02-15T22:23:48.514Z,1.40
2023-02-15T22:26:25.104Z,1.50
2023-02-15T22:28:54.293Z,1.50
2023-02-15T22:31:25.393Z,1.50
2023-02-15T22:33:55.396Z,1.50
2023-02-15T22:36:27.314Z,1.50
2023-02-15T22:38:57.626Z,1.50
2023-02-15T22:41:30.787Z,1.50
2023-02-15T22:44:00.347Z,1.50
2023-02-15T22:46:30.679Z,1.60
2023-02-15T22:48:59.498Z,1.60
2023-02-15T22:51:28.362Z,1.60
2023-02-15T22:53:57.500Z,1.60
2023-02-15T22:56:40.496Z,1.70
2023-02-15T22:59:18.324Z,1.70
2023-02-15T23:01:49.528Z,1.70
2023-02-15T23:04:22.401Z,1.70
2023-02-15T23:06:53.364Z,1.70
2023-02-15T23:09:22.837Z,1.70
2023-02-15T23:11:53.512Z,1.60
2023-02-15T23:14:29.232Z,1.60
2023-02-15T23:16:59.531Z,1.60
2023-02-15T23:19:28.998Z,1.70
2023-02-15T23:21:57.900Z,1.60
2023-02-15T23:24:30.630Z,1.70
2023-02-15T23:27:19.791Z,1.70
2023-02-15T23:29:48.753Z,1.70
2023-02-15T23:32:20.497Z,1.70
2023-02-15T23:34:49.661Z,1.70
2023-02-15T23:37:19.795Z,1.70
2023-02-15T23:40:06.094Z,1.70
2023-02-15T23:42:36.674Z,1.70
2023-02-15T23:45:07.225Z,1.60
2023-02-15T23:47:55.219Z,1.60
2023-02-15T23:50:28.329Z,1.70
2023-02-15T23:52:58.665Z,1.70
2023-02-15T23:55:36.454Z,1.70
2023-02-15T23:58:06.349Z,1.70
